createdAt,value
2022-12-03T00:00:18.844Z,61.96
2022-12-03T00:03:03.877Z,62.15
2022-12-03T00:05:49.475Z,62.52
2022-12-03T00:08:34.668Z,63.76
2022-12-03T00:11:19.636Z,61.85
2022-12-03T00:14:04.589Z,60.54
2022-12-03T00:16:49.650Z,61.94
2022-12-03T00:19:34.598Z,62.58
2022-12-03T00:22:19.656Z,62.59
2022-12-03T00:25:04.535Z,61.29
2022-12-03T00:27:49.482Z,60.68
2022-12-03T00:30:34.271Z,60.34
2022-12-03T00:33:19.728Z,60.22
2022-12-03T00:36:04.671Z,61.15
2022-12-03T00:38:49.599Z,61.35
2022-12-03T00:41:34.521Z,59.74
2022-12-03T00:44:19.310Z,60.47
2022-12-03T00:47:04.326Z,60.15
2022-12-03T00:49:49.730Z,61.53
2022-12-03T00:52:34.567Z,60.02
2022-12-03T00:55:19.539Z,60.84
2022-12-03T00:58:04.478Z,59.96
2022-12-03T01:00:49.354Z,59.60
2022-12-03T01:03:34.252Z,60.94
2022-12-03T01:06:19.301Z,62.91
2022-12-03T01:09:04.099Z,62.62
2022-12-03T01:11:49.158Z,61.97
2022-12-03T01:14:34.043Z,60.66
2022-12-03T01:17:18.993Z,60.60
2022-12-03T01:20:03.914Z,60.55
2022-12-03T01:22:48.901Z,61.99
2022-12-03T01:25:33.877Z,61.74
2022-12-03T01:28:18.826Z,63.17
2022-12-03T01:31:03.887Z,61.74
2022-12-03T01:33:48.529Z,60.47
2022-12-03T01:36:33.429Z,60.68
2022-12-03T01:39:18.306Z,60.59
2022-12-03T01:42:03.316Z,60.17
2022-12-03T01:44:48.265Z,59.92
2022-12-03T01:47:33.294Z,59.74
2022-12-03T01:50:18.175Z,60.23
2022-12-03T01:53:03.242Z,59.99
2022-12-03T01:55:49.173Z,59.74
2022-12-03T01:58:34.071Z,59.40
2022-12-03T02:01:19.014Z,59.66
2022-12-03T02:04:03.895Z,59.87
2022-12-03T02:06:49.528Z,60.30
2022-12-03T02:09:34.393Z,59.41
2022-12-03T02:12:19.453Z,60.42
2022-12-03T02:15:04.385Z,61.15
2022-12-03T02:17:49.329Z,60.85
2022-12-03T02:20:34.374Z,61.32
2022-12-03T02:23:19.242Z,61.21
2022-12-03T02:26:04.104Z,60.50
2022-12-03T02:28:49.103Z,60.95
2022-12-03T02:31:34.082Z,62.30
2022-12-03T02:34:19.500Z,62.47
2022-12-03T02:37:04.411Z,61.65
2022-12-03T02:39:49.457Z,61.94
2022-12-03T02:42:34.340Z,62.01
2022-12-03T02:45:19.231Z,62.67
2022-12-03T02:48:04.102Z,62.32
2022-12-03T02:50:49.164Z,61.97
2022-12-03T02:53:34.149Z,62.06
2022-12-03T02:56:19.191Z,63.11
2022-12-03T02:59:04.155Z,63.12
2022-12-03T03:01:49.134Z,62.69
2022-12-03T03:04:34.162Z,62.52
2022-12-03T03:07:18.949Z,62.05
2022-12-03T03:10:03.756Z,62.45
2022-12-03T03:12:48.565Z,63.78
2022-12-03T03:15:33.514Z,64.13
2022-12-03T03:18:18.409Z,63.92
2022-12-03T03:21:03.334Z,63.16
2022-12-03T03:23:48.223Z,62.65
2022-12-03T03:26:33.064Z,62.60
2022-12-03T03:29:18.155Z,63.83
2022-12-03T03:32:03.085Z,62.78
2022-12-03T03:34:48.457Z,63.72
2022-12-03T03:37:33.363Z,62.16
2022-12-03T03:40:18.263Z,62.60
2022-12-03T03:43:03.165Z,62.92
2022-12-03T03:45:48.030Z,62.76
2022-12-03T03:48:33.078Z,62.98
2022-12-03T03:51:18.161Z,62.91
2022-12-03T03:54:03.266Z,63.40
2022-12-03T03:56:48.069Z,62.58
2022-12-03T03:59:33.090Z,62.98
2022-12-03T04:02:18.042Z,63.41
2022-12-03T04:05:03.224Z,62.75
2022-12-03T04:07:48.679Z,62.26
2022-12-03T04:10:33.454Z,62.91
2022-12-03T04:13:18.470Z,62.40
2022-12-03T04:16:03.475Z,63.06
2022-12-03T04:18:48.821Z,63.11
2022-12-03T04:21:33.619Z,63.18
2022-12-03T04:24:18.636Z,63.61
2022-12-03T04:27:03.458Z,62.96
2022-12-03T04:29:48.300Z,62.85
2022-12-03T04:32:33.492Z,62.75
2022-12-03T04:35:19.032Z,63.01
2022-12-03T04:38:04.291Z,63.06
2022-12-03T04:40:49.116Z,62.10
2022-12-03T04:43:34.172Z,63.34
2022-12-03T04:46:19.123Z,62.18
2022-12-03T04:49:04.107Z,63.11
2022-12-03T04:51:49.218Z,62.81
2022-12-03T04:54:34.051Z,62.65
2022-12-03T04:57:19.010Z,62.25
2022-12-03T05:00:03.843Z,63.86
2022-12-03T05:02:49.015Z,63.92
2022-12-03T05:05:34.506Z,63.12
2022-12-03T05:08:19.991Z,63.75
2022-12-03T05:11:04.939Z,62.03
2022-12-03T05:13:50.004Z,62.64
2022-12-03T05:16:34.884Z,63.52
2022-12-03T05:19:19.701Z,62.87
2022-12-03T05:22:04.699Z,62.96
2022-12-03T05:24:49.685Z,63.21
2022-12-03T05:27:34.608Z,63.75
2022-12-03T05:30:19.433Z,64.00
2022-12-03T05:33:04.371Z,63.73
2022-12-03T05:35:49.241Z,61.59
2022-12-03T05:38:34.164Z,63.92
2022-12-03T05:41:19.069Z,62.99
2022-12-03T05:44:03.930Z,61.94
2022-12-03T05:46:48.908Z,63.41
2022-12-03T05:49:33.699Z,63.31
2022-12-03T05:52:18.696Z,63.24
2022-12-03T05:55:03.499Z,61.34
2022-12-03T05:57:48.455Z,63.06
2022-12-03T06:00:37.640Z,64.17
2022-12-03T06:03:26.128Z,63.14
2022-12-03T06:06:11.259Z,61.61
2022-12-03T06:08:56.313Z,62.73
2022-12-03T06:11:41.216Z,63.46
2022-12-03T06:14:26.126Z,63.37
2022-12-03T06:17:10.985Z,63.54
2022-12-03T06:19:55.870Z,64.02
2022-12-03T06:22:40.731Z,62.09
2022-12-03T06:25:25.768Z,62.04
2022-12-03T06:28:10.721Z,61.97
2022-12-03T06:30:55.826Z,61.54
2022-12-03T06:33:41.151Z,61.32
2022-12-03T06:36:26.210Z,61.97
2022-12-03T06:39:11.245Z,61.63
2022-12-03T06:41:56.247Z,61.71
2022-12-03T06:44:41.148Z,61.97
2022-12-03T06:47:26.086Z,62.90
2022-12-03T06:50:11.017Z,62.34
2022-12-03T06:52:55.820Z,62.19
2022-12-03T06:55:40.658Z,63.36
2022-12-03T06:58:25.597Z,63.34
2022-12-03T07:01:10.541Z,63.44
2022-12-03T07:03:55.422Z,62.06
2022-12-03T07:06:40.307Z,62.55
2022-12-03T07:09:25.168Z,62.50
2022-12-03T07:12:10.390Z,62.35
2022-12-03T07:14:55.625Z,61.52
2022-12-03T07:17:41.186Z,60.47
2022-12-03T07:20:25.940Z,61.30
2022-12-03T07:23:10.804Z,60.61
2022-12-03T07:25:55.568Z,60.55
2022-12-03T07:28:40.478Z,61.38
2022-12-03T07:31:25.472Z,60.32
2022-12-03T07:34:10.178Z,60.11
2022-12-03T07:36:55.297Z,59.09
2022-12-03T07:39:40.195Z,59.46
2022-12-03T07:42:25.087Z,59.87
2022-12-03T07:45:09.997Z,60.14
2022-12-03T07:47:54.969Z,60.28
2022-12-03T07:50:39.769Z,59.79
2022-12-03T07:53:24.809Z,58.71
2022-12-03T07:56:09.650Z,59.17
2022-12-03T07:58:54.485Z,59.95
2022-12-03T08:01:39.572Z,59.66
2022-12-03T08:04:24.903Z,58.68
2022-12-03T08:07:09.853Z,58.70
2022-12-03T08:09:54.690Z,59.14
2022-12-03T08:12:39.610Z,59.43
2022-12-03T08:15:24.470Z,58.53
2022-12-03T08:18:09.393Z,57.29
2022-12-03T08:20:54.230Z,57.36
2022-12-03T08:23:39.202Z,57.12
2022-12-03T08:26:24.281Z,56.92
2022-12-03T08:29:09.095Z,57.53
2022-12-03T08:31:54.179Z,57.56
2022-12-03T08:34:39.602Z,57.30
2022-12-03T08:37:24.609Z,57.15
2022-12-03T08:40:09.465Z,56.58
2022-12-03T08:42:54.386Z,56.75
2022-12-03T08:45:39.454Z,56.41
2022-12-03T08:48:24.822Z,56.24
2022-12-03T08:51:09.805Z,54.73
2022-12-03T08:54:01.083Z,56.24
2022-12-03T08:56:46.717Z,56.50
2022-12-03T08:59:31.608Z,55.95
2022-12-03T09:02:16.402Z,55.83
2022-12-03T09:05:01.414Z,55.29
2022-12-03T09:07:46.360Z,53.61
2022-12-03T09:10:31.157Z,53.82
2022-12-03T09:13:16.195Z,53.94
2022-12-03T09:16:01.195Z,53.64
2022-12-03T09:18:46.137Z,52.96
2022-12-03T09:21:30.896Z,52.05
2022-12-03T09:24:15.736Z,52.78
2022-12-03T09:27:00.616Z,54.15
2022-12-03T09:29:45.593Z,52.93
2022-12-03T09:32:30.685Z,53.08
2022-12-03T09:35:15.530Z,52.15
2022-12-03T09:38:00.471Z,53.36
2022-12-03T09:40:45.313Z,51.65
2022-12-03T09:43:49.547Z,52.21
2022-12-03T09:46:35.647Z,52.21
2022-12-03T09:49:20.946Z,52.09
2022-12-03T09:52:05.875Z,52.42
2022-12-03T09:54:50.726Z,52.49
2022-12-03T09:57:35.672Z,53.46
2022-12-03T10:00:20.486Z,53.36
2022-12-03T10:03:05.497Z,52.62
2022-12-03T10:05:50.541Z,53.48
2022-12-03T10:08:35.388Z,53.17
2022-12-03T10:11:20.264Z,53.36
2022-12-03T10:14:05.134Z,52.18
2022-12-03T10:16:50.029Z,53.35
2022-12-03T10:19:34.735Z,53.01
2022-12-03T10:22:19.630Z,53.15
2022-12-03T10:25:04.474Z,52.73
2022-12-03T10:27:49.505Z,51.76
2022-12-03T10:30:34.443Z,51.91
2022-12-03T10:33:19.455Z,52.67
2022-12-03T10:36:04.379Z,53.49
2022-12-03T10:38:49.315Z,52.50
2022-12-03T10:41:34.374Z,52.91
2022-12-03T10:44:19.246Z,53.25
2022-12-03T10:47:04.401Z,51.91
2022-12-03T10:49:49.706Z,52.81
2022-12-03T10:52:34.630Z,53.05
2022-12-03T10:55:19.649Z,52.19
2022-12-03T10:58:04.427Z,53.02
2022-12-03T11:00:49.452Z,53.56
2022-12-03T11:03:34.617Z,52.92
2022-12-03T11:06:19.613Z,51.83
2022-12-03T11:09:08.714Z,52.96
2022-12-03T11:11:54.358Z,52.17
2022-12-03T11:14:39.237Z,53.61
2022-12-03T11:17:24.783Z,51.95
2022-12-03T11:20:09.592Z,52.50
2022-12-03T11:22:54.509Z,52.63
2022-12-03T11:25:39.484Z,52.32
2022-12-03T11:28:24.418Z,52.35
2022-12-03T11:31:09.396Z,51.62
2022-12-03T11:33:54.205Z,51.90
2022-12-03T11:37:00.729Z,52.24
2022-12-03T11:39:44.236Z,52.05
2022-12-03T11:42:29.117Z,51.73
2022-12-03T11:45:13.983Z,52.58
2022-12-03T11:47:58.923Z,53.83
2022-12-03T11:50:43.788Z,53.42
2022-12-03T11:53:28.755Z,53.47
2022-12-03T11:56:13.515Z,52.38
2022-12-03T11:58:58.338Z,52.77
2022-12-03T12:01:43.281Z,52.35
2022-12-03T12:04:28.242Z,52.19
2022-12-03T12:07:13.595Z,52.20
2022-12-03T12:09:58.605Z,51.51
2022-12-03T12:12:54.315Z,52.39
2022-12-03T12:15:39.635Z,52.42
2022-12-03T12:18:24.686Z,51.74
2022-12-03T12:21:09.587Z,52.84
2022-12-03T12:23:54.570Z,51.83
2022-12-03T12:26:39.377Z,50.69
2022-12-03T12:29:24.396Z,52.05
2022-12-03T12:32:09.478Z,51.83
2022-12-03T12:34:54.923Z,52.15
2022-12-03T12:37:42.622Z,51.19
2022-12-03T12:40:29.722Z,52.79
2022-12-03T12:43:20.356Z,52.54
2022-12-03T12:46:38.640Z,52.80
2022-12-03T12:49:13.944Z,52.73
2022-12-03T12:51:58.901Z,52.33
2022-12-03T12:54:43.819Z,51.95
2022-12-03T12:57:29.715Z,52.42
2022-12-03T13:00:14.709Z,52.48
2022-12-03T13:03:00.415Z,51.27
2022-12-03T13:05:45.881Z,53.32
2022-12-03T13:08:30.796Z,53.21
2022-12-03T13:11:15.821Z,52.57
2022-12-03T13:14:00.749Z,52.32
2022-12-03T13:16:45.856Z,51.59
2022-12-03T13:19:31.331Z,52.87
2022-12-03T13:22:16.393Z,51.85
2022-12-03T13:25:01.373Z,52.88
2022-12-03T13:27:46.308Z,53.35
2022-12-03T13:30:31.340Z,53.12
2022-12-03T13:33:16.324Z,53.93
2022-12-03T13:36:01.300Z,53.64
2022-12-03T13:38:46.094Z,53.50
2022-12-03T13:41:31.168Z,52.98
2022-12-03T13:44:16.053Z,53.53
2022-12-03T13:47:01.143Z,53.18
2022-12-03T13:49:46.059Z,54.70
2022-12-03T13:52:31.057Z,54.33
2022-12-03T13:55:17.314Z,54.25
2022-12-03T13:58:17.720Z,54.01
2022-12-03T14:01:03.102Z,53.80
2022-12-03T14:03:48.426Z,55.03
2022-12-03T14:06:33.611Z,54.22
2022-12-03T14:09:18.536Z,54.96
2022-12-03T14:12:03.671Z,54.15
2022-12-03T14:14:48.724Z,54.49
2022-12-03T14:17:33.639Z,54.62
2022-12-03T14:20:18.737Z,55.05
2022-12-03T14:23:03.731Z,54.43
2022-12-03T14:25:49.176Z,54.48
2022-12-03T14:28:34.120Z,54.99
2022-12-03T14:31:19.087Z,55.44
2022-12-03T14:34:04.556Z,54.56
2022-12-03T14:36:49.605Z,56.03
2022-12-03T14:39:34.490Z,56.08
2022-12-03T14:42:19.641Z,56.76
2022-12-03T14:45:04.665Z,56.71
2022-12-03T14:47:50.090Z,57.13
2022-12-03T14:50:35.161Z,57.09
2022-12-03T14:53:25.613Z,57.77
2022-12-03T14:56:12.162Z,56.99
2022-12-03T14:58:57.190Z,57.37
2022-12-03T15:01:42.238Z,57.28
2022-12-03T15:04:27.638Z,57.65
2022-12-03T15:07:12.573Z,57.29
2022-12-03T15:09:57.699Z,57.17
2022-12-03T15:12:43.055Z,57.37
2022-12-03T15:15:27.973Z,58.04
2022-12-03T15:18:12.828Z,57.54
2022-12-03T15:20:57.910Z,58.13
2022-12-03T15:23:42.865Z,59.42
2022-12-03T15:26:27.906Z,59.30
2022-12-03T15:29:12.743Z,59.19
2022-12-03T15:31:57.725Z,58.95
2022-12-03T15:34:44.955Z,59.45
2022-12-03T15:37:29.969Z,59.19
2022-12-03T15:40:14.810Z,60.12
2022-12-03T15:42:59.695Z,59.81
2022-12-03T15:45:44.672Z,60.85
2022-12-03T15:48:29.414Z,59.87
2022-12-03T15:51:14.499Z,60.12
2022-12-03T15:54:00.826Z,60.51
2022-12-03T15:56:46.165Z,59.95
2022-12-03T15:59:31.666Z,60.55
2022-12-03T16:02:16.689Z,60.88
2022-12-03T16:05:02.212Z,61.73
2022-12-03T16:07:48.388Z,60.87
2022-12-03T16:10:33.764Z,62.10
2022-12-03T16:13:18.907Z,61.79
2022-12-03T16:16:03.751Z,60.84
2022-12-03T16:18:49.435Z,61.88
2022-12-03T16:21:34.996Z,61.60
2022-12-03T16:24:19.903Z,61.62
2022-12-03T16:27:05.044Z,62.08
2022-12-03T16:29:50.032Z,61.24
2022-12-03T16:32:35.072Z,61.12
2022-12-03T16:35:19.930Z,61.02
2022-12-03T16:38:04.949Z,60.87
2022-12-03T16:40:50.520Z,61.87
2022-12-03T16:43:35.512Z,61.13
2022-12-03T16:46:20.460Z,60.43
2022-12-03T16:49:05.928Z,61.22
2022-12-03T16:51:50.888Z,61.19
2022-12-03T16:54:35.807Z,62.01
2022-12-03T16:57:20.679Z,60.96
2022-12-03T17:00:05.504Z,61.82
2022-12-03T17:02:50.527Z,62.26
2022-12-03T17:05:36.005Z,61.76
2022-12-03T17:08:20.886Z,61.98
2022-12-03T17:11:06.782Z,61.76
2022-12-03T17:13:51.995Z,62.12
2022-12-03T17:16:37.059Z,61.42
2022-12-03T17:19:22.026Z,61.64
2022-12-03T17:22:07.026Z,61.74
2022-12-03T17:24:51.989Z,60.93
2022-12-03T17:27:40.823Z,62.07
2022-12-03T17:30:30.034Z,61.81
2022-12-03T17:33:15.076Z,61.72
2022-12-03T17:36:00.113Z,62.10
2022-12-03T17:38:45.138Z,62.40
2022-12-03T17:41:30.064Z,61.65
2022-12-03T17:44:19.388Z,62.60
2022-12-03T17:47:05.912Z,62.28
2022-12-03T17:49:50.896Z,62.16
2022-12-03T17:52:35.883Z,61.52
2022-12-03T17:55:28.180Z,61.00
2022-12-03T17:58:21.129Z,60.72
2022-12-03T18:01:06.139Z,61.75
2022-12-03T18:03:51.675Z,61.57
2022-12-03T18:06:37.060Z,63.13
2022-12-03T18:09:22.049Z,61.67
2022-12-03T18:12:06.990Z,61.40
2022-12-03T18:14:51.932Z,62.33
2022-12-03T18:17:36.829Z,62.21
2022-12-03T18:20:22.993Z,61.76
2022-12-03T18:23:08.296Z,62.00
2022-12-03T18:25:53.357Z,62.38
2022-12-03T18:28:38.205Z,62.73
2022-12-03T18:31:23.200Z,61.19
2022-12-03T18:34:09.028Z,61.58
2022-12-03T18:36:54.152Z,60.94
2022-12-03T18:39:39.148Z,61.48
2022-12-03T18:42:23.987Z,61.47
2022-12-03T18:45:09.121Z,61.28
2022-12-03T18:47:54.456Z,60.71
2022-12-03T18:50:39.863Z,60.21
2022-12-03T18:53:24.891Z,61.63
2022-12-03T18:56:10.345Z,61.07
2022-12-03T18:58:55.340Z,62.07
2022-12-03T19:01:40.270Z,62.39
2022-12-03T19:04:25.254Z,61.91
2022-12-03T19:07:10.135Z,61.02
2022-12-03T19:09:55.608Z,62.29
2022-12-03T19:12:40.992Z,61.37
2022-12-03T19:15:26.194Z,61.31
2022-12-03T19:18:11.201Z,61.57
2022-12-03T19:20:56.173Z,61.10
2022-12-03T19:23:41.404Z,62.38
2022-12-03T19:26:28.150Z,61.39
2022-12-03T19:29:13.137Z,62.36
2022-12-03T19:31:58.250Z,61.71
2022-12-03T19:34:43.583Z,61.35
2022-12-03T19:37:28.559Z,61.46
2022-12-03T19:40:13.386Z,62.76
2022-12-03T19:42:58.487Z,62.45
2022-12-03T19:45:43.525Z,62.02
2022-12-03T19:48:28.561Z,61.57
2022-12-03T19:51:33.734Z,60.99
2022-12-03T19:54:18.779Z,61.22
2022-12-03T19:57:03.688Z,61.23
2022-12-03T19:59:48.700Z,61.72
2022-12-03T20:02:33.731Z,61.89
2022-12-03T20:05:19.109Z,61.61
2022-12-03T20:08:04.083Z,61.99
2022-12-03T20:10:49.394Z,61.12
2022-12-03T20:13:36.520Z,61.17
2022-12-03T20:16:21.798Z,61.41
2022-12-03T20:19:06.708Z,61.54
2022-12-03T20:21:51.613Z,61.60
2022-12-03T20:24:36.540Z,60.99
2022-12-03T20:27:23.159Z,61.55
2022-12-03T20:30:08.557Z,61.34
2022-12-03T20:32:53.646Z,62.49
2022-12-03T20:35:38.639Z,61.56
2022-12-03T20:38:23.646Z,61.95
2022-12-03T20:41:08.608Z,62.09
2022-12-03T20:43:53.633Z,61.78
2022-12-03T20:46:38.712Z,61.46
2022-12-03T20:49:23.606Z,60.98
2022-12-03T20:52:08.495Z,61.33
2022-12-03T20:54:53.548Z,62.02
2022-12-03T20:57:38.644Z,61.84
2022-12-03T21:00:23.471Z,61.73
2022-12-03T21:03:08.417Z,61.33
2022-12-03T21:05:53.281Z,63.17
2022-12-03T21:08:42.462Z,61.94
2022-12-03T21:11:27.914Z,61.96
2022-12-03T21:14:12.835Z,62.58
2022-12-03T21:17:08.374Z,62.53
2022-12-03T21:19:54.720Z,62.07
2022-12-03T21:22:40.252Z,62.01
2022-12-03T21:25:25.213Z,61.63
2022-12-03T21:28:10.255Z,60.65
2022-12-03T21:30:55.130Z,62.09
2022-12-03T21:33:39.886Z,61.84
2022-12-03T21:36:24.870Z,61.37
2022-12-03T21:39:09.714Z,61.04
2022-12-03T21:42:34.054Z,61.66
2022-12-03T21:44:59.763Z,60.99
2022-12-03T21:47:44.839Z,62.05
2022-12-03T21:50:30.134Z,60.88
2022-12-03T21:53:15.183Z,60.92
2022-12-03T21:56:00.351Z,60.80
2022-12-03T21:58:45.351Z,60.53
2022-12-03T22:01:30.570Z,60.83
2022-12-03T22:04:15.305Z,60.21
2022-12-03T22:07:00.354Z,61.32
2022-12-03T22:09:45.313Z,60.29
2022-12-03T22:12:30.287Z,61.61
2022-12-03T22:15:19.026Z,60.69
2022-12-03T22:18:04.404Z,61.61
2022-12-03T22:20:49.616Z,61.68
2022-12-03T22:23:34.387Z,62.02
2022-12-03T22:26:19.352Z,61.86
2022-12-03T22:29:04.425Z,61.60
2022-12-03T22:31:49.445Z,61.23
2022-12-03T22:34:34.450Z,61.06
2022-12-03T22:37:19.290Z,61.60
2022-12-03T22:40:04.258Z,61.75
2022-12-03T22:42:51.113Z,61.01
2022-12-03T22:45:36.166Z,61.10
2022-12-03T22:48:20.995Z,61.51
2022-12-03T22:51:05.828Z,61.56
2022-12-03T22:53:50.855Z,61.90
2022-12-03T22:56:35.659Z,62.23
2022-12-03T22:59:20.554Z,61.77
2022-12-03T23:02:05.551Z,61.36
2022-12-03T23:04:51.364Z,61.76
2022-12-03T23:07:36.471Z,61.91
2022-12-03T23:10:21.381Z,61.71
2022-12-03T23:13:06.949Z,60.91
2022-12-03T23:15:52.033Z,61.41
2022-12-03T23:18:37.492Z,61.42
2022-12-03T23:21:28.586Z,60.95
2022-12-03T23:24:14.968Z,61.69
2022-12-03T23:26:59.836Z,61.79
2022-12-03T23:29:44.944Z,60.83
2022-12-03T23:32:29.766Z,61.78
2022-12-03T23:35:14.938Z,61.33
2022-12-03T23:38:00.019Z,60.72
2022-12-03T23:40:48.336Z,60.33
2022-12-03T23:43:33.561Z,60.69
2022-12-03T23:46:20.927Z,61.35
2022-12-03T23:49:05.857Z,60.68
2022-12-03T23:51:51.015Z,60.93
2022-12-03T23:54:36.040Z,60.36
2022-12-03T23:57:20.994Z,60.66
